Time;durP1;ratioP1;P1;durP2;ratioP2;P2;SDS_P1;SDS_P2;PMS_P1;PMS_P2;Temp;Humidity;BMP_temperature;BMP_pressure;BME280_temperature;BME280_humidity;BME280_pressure;Samples;Min_cycle;Max_cycle;Signal;HPM_P1;HPM_P2
2023/08/30 00:02:03;;;;;;;5.15;1.02;;;;;;;13.36;81.00;99766.78;5008052;28;20034;-62
2023/08/30 00:04:29;;;;;;;1.17;0.93;;;;;;;13.29;81.00;99760.03;5006680;28;20026;-62
2023/08/30 00:06:54;;;;;;;3.50;0.85;;;;;;;13.25;81.16;99758.44;5007933;28;20018;-62
2023/08/30 00:09:19;;;;;;;3.47;2.13;;;;;;;13.22;81.44;99763.75;5006525;28;20053;-61
2023/08/30 00:11:45;;;;;;;0.70;0.70;;;;;;;13.19;81.76;99764.72;5008187;28;20049;-62
2023/08/30 00:14:10;;;;;;;1.05;0.95;;;;;;;13.21;81.71;99765.50;5007929;28;20205;-61
2023/08/30 00:16:38;;;;;;;0.63;0.63;;;;;;;13.21;81.58;99765.50;5007370;28;20101;-61
2023/08/30 00:19:03;;;;;;;2.45;1.23;;;;;;;13.17;81.94;99758.69;5007960;28;20034;-63
2023/08/30 00:21:29;;;;;;;1.23;0.90;;;;;;;13.15;81.98;99757.84;5007785;28;20033;-62
2023/08/30 00:23:54;;;;;;;1.23;1.13;;;;;;;13.08;82.22;99751.97;5007761;28;20026;-62
2023/08/30 00:26:20;;;;;;;1.30;1.20;;;;;;;13.11;82.33;99770.16;5007408;28;20018;-62
2023/08/30 00:28:45;;;;;;;1.17;1.05;;;;;;;13.06;82.44;99764.22;5007822;28;20033;-62
2023/08/30 00:31:11;;;;;;;0.93;0.90;;;;;;;13.04;82.59;99765.13;5007892;28;20022;-62
2023/08/30 00:33:37;;;;;;;0.80;0.80;;;;;;;13.03;82.59;99766.91;5007665;28;20018;-62
2023/08/30 00:36:04;;;;;;;1.30;0.80;;;;;;;13.04;82.71;99766.00;5007741;28;20037;-62
2023/08/30 00:38:33;;;;;;;1.63;1.10;;;;;;;13.05;82.70;99764.25;5007678;28;20037;-62
2023/08/30 00:40:59;;;;;;;1.23;1.13;;;;;;;13.00;82.73;99759.19;5007379;28;20093;-62
2023/08/30 00:43:24;;;;;;;2.38;1.23;;;;;;;13.09;82.81;99766.72;5007771;28;20026;-61
2023/08/30 00:45:50;;;;;;;0.70;0.70;;;;;;;13.09;82.61;99771.94;5007534;28;20022;-62
2023/08/30 00:48:18;;;;;;;1.67;1.33;;;;;;;13.02;82.84;99762.56;5007271;28;20041;-62
2023/08/30 00:50:44;;;;;;;0.93;0.93;;;;;;;13.09;82.80;99760.66;5007236;28;20015;-62
2023/08/30 00:53:10;;;;;;;1.88;0.90;;;;;;;13.10;82.78;99755.38;5006337;28;20138;-62
2023/08/30 00:55:37;;;;;;;1.58;0.90;;;;;;;13.12;82.62;99745.78;5007156;28;20057;-62
2023/08/30 00:58:03;;;;;;;0.85;0.85;;;;;;;13.09;82.78;99745.88;5007092;28;20018;-61
2023/08/30 01:00:30;;;;;;;0.50;0.50;;;;;;;13.12;82.81;99742.31;5006869;28;20053;-62
2023/08/30 01:02:56;;;;;;;3.92;1.33;;;;;;;13.14;82.74;99751.81;5006850;28;20026;-62
2023/08/30 01:05:22;;;;;;;1.27;0.85;;;;;;;13.06;82.38;99735.53;5006761;28;20045;-61
2023/08/30 01:07:49;;;;;;;1.75;0.90;;;;;;;13.16;82.65;99743.09;5006884;28;20053;-61
2023/08/30 01:10:14;;;;;;;2.17;1.10;;;;;;;13.16;82.82;99740.47;5006804;28;20026;-62
2023/08/30 01:12:51;;;;;;;0.80;0.80;;;;;;;13.18;82.55;99749.13;5007139;28;20076;-61
2023/08/30 01:15:19;;;;;;;1.90;1.15;;;;;;;13.16;82.83;99748.28;5006945;28;20414;-61
2023/08/30 01:17:56;;;;;;;1.35;0.75;;;;;;;13.10;83.09;99739.75;5006823;28;20027;-62
2023/08/30 01:20:24;;;;;;;1.13;1.02;;;;;;;13.10;83.01;99747.56;5006684;28;20054;-61
2023/08/30 01:23:00;;;;;;;0.40;0.40;;;;;;;13.08;82.98;99741.53;5006852;28;20072;-62
2023/08/30 01:25:35;;;;;;;4.28;1.30;;;;;;;13.09;83.20;99748.47;5005424;28;20027;-62
2023/08/30 01:28:05;;;;;;;2.67;1.10;;;;;;;13.15;83.06;99739.63;5005790;28;20053;-63
2023/08/30 01:30:33;;;;;;;1.05;0.95;;;;;;;13.10;83.16;99736.31;5006123;28;20022;-62
2023/08/30 01:33:01;;;;;;;3.30;1.23;;;;;;;13.11;83.29;99730.19;5006942;28;20026;-62
2023/08/30 01:35:32;;;;;;;3.90;1.25;;;;;;;13.12;83.46;99730.16;5006330;28;20030;-61
2023/08/30 01:37:58;;;;;;;0.87;0.80;;;;;;;13.12;83.60;99732.75;5006600;28;20026;-62
2023/08/30 01:40:25;;;;;;;0.93;0.73;;;;;;;13.12;83.48;99727.53;5006289;28;20280;-62
2023/08/30 01:42:51;;;;;;;1.15;1.05;;;;;;;13.18;83.39;99716.06;5006322;28;20101;-62
2023/08/30 01:45:18;;;;;;;1.90;0.98;;;;;;;13.18;83.50;99717.84;5004985;28;20156;-62
2023/08/30 01:47:45;;;;;;;0.88;0.85;;;;;;;13.21;83.56;99717.75;5006373;28;20022;-62
2023/08/30 01:50:12;;;;;;;1.30;0.73;;;;;;;13.21;83.32;99715.13;5006369;28;20018;-62
2023/08/30 01:52:38;;;;;;;0.63;0.63;;;;;;;13.26;83.37;99719.28;5006187;28;20030;-62
2023/08/30 01:55:05;;;;;;;2.72;1.05;;;;;;;13.25;83.18;99711.53;5006186;28;20109;-63
2023/08/30 01:57:31;;;;;;;2.05;1.08;;;;;;;13.24;83.47;99710.66;5004805;28;20022;-62
2023/08/30 01:59:56;;;;;;;1.02;0.90;;;;;;;13.32;83.07;99713.03;5006307;28;20033;-62
2023/08/30 02:02:21;;;;;;;1.45;1.20;;;;;;;13.32;82.91;99705.19;5005978;28;20085;-62
2023/08/30 02:04:47;;;;;;;1.17;1.08;;;;;;;13.31;83.22;99707.84;5006054;28;20045;-62
2023/08/30 02:07:28;;;;;;;1.27;1.05;;;;;;;13.32;83.04;99720.00;5005897;28;20030;-62
2023/08/30 02:10:00;;;;;;;2.30;1.70;;;;;;;13.36;82.80;99704.22;5005929;28;20029;-61
2023/08/30 02:12:39;;;;;;;2.47;1.20;;;;;;;13.32;82.99;99701.75;5006439;28;20030;-63
2023/08/30 02:15:07;;;;;;;1.52;1.00;;;;;;;13.31;83.07;99693.09;5005956;28;20033;-62
2023/08/30 02:17:35;;;;;;;1.25;1.13;;;;;;;13.27;83.12;99694.91;5004649;28;20090;-62
2023/08/30 02:20:00;;;;;;;3.22;1.20;;;;;;;13.27;83.15;99699.31;5006028;28;20037;-63
2023/08/30 02:22:26;;;;;;;1.10;0.95;;;;;;;13.26;82.98;99694.97;5005717;28;20026;-63
2023/08/30 02:24:51;;;;;;;1.23;1.13;;;;;;;13.21;83.41;99689.06;5004391;28;20117;-63
2023/08/30 02:27:17;;;;;;;5.05;0.68;;;;;;;13.23;83.43;99688.13;5005875;28;20030;-63
2023/08/30 02:29:42;;;;;;;1.08;0.98;;;;;;;13.26;83.52;99681.94;5006170;28;20025;-62
2023/08/30 02:32:07;;;;;;;1.75;0.93;;;;;;;13.25;83.41;99682.84;5020972;28;20022;-62
2023/08/30 02:34:35;;;;;;;1.08;0.77;;;;;;;13.19;83.62;99678.69;5005495;28;20487;-63
2023/08/30 02:37:01;;;;;;;1.05;0.77;;;;;;;13.21;83.57;99673.44;5005856;28;20022;-63
2023/08/30 02:39:27;;;;;;;0.80;0.80;;;;;;;13.24;83.33;99676.78;5006842;28;20022;-62
2023/08/30 02:41:53;;;;;;;4.03;0.82;;;;;;;13.20;83.24;99671.72;5010171;28;20053;-64
2023/08/30 02:44:18;;;;;;;1.17;0.80;;;;;;;13.17;83.52;99677.03;5025211;28;20034;-63
2023/08/30 02:46:43;;;;;;;0.60;0.60;;;;;;;13.14;83.33;99673.63;5009814;28;20028;-62
2023/08/30 02:49:11;;;;;;;0.77;0.77;;;;;;;13.17;83.39;99682.22;5009788;28;20030;-62
2023/08/30 02:51:36;;;;;;;1.10;0.80;;;;;;;13.16;83.28;99677.94;5009764;28;20026;-62
2023/08/30 02:54:01;;;;;;;0.55;0.55;;;;;;;13.19;83.01;99683.91;5009366;28;20027;-62
2023/08/30 02:56:27;;;;;;;1.23;0.70;;;;;;;13.16;83.41;99684.00;5009546;28;20030;-62
2023/08/30 02:58:52;;;;;;;0.68;0.68;;;;;;;13.10;83.48;99677.22;5009602;28;20049;-62
2023/08/30 03:01:17;;;;;;;0.60;0.60;;;;;;;13.11;83.58;99680.69;5009503;28;20058;-63
2023/08/30 03:03:43;;;;;;;2.65;1.98;;;;;;;13.15;83.60;99679.66;5009771;28;20053;-63
2023/08/30 03:06:08;;;;;;;1.17;0.75;;;;;;;13.12;83.32;99675.41;5009652;28;20517;-62
2023/08/30 03:08:34;;;;;;;0.63;0.60;;;;;;;13.17;83.10;99682.22;5009475;28;20018;-63
2023/08/30 03:11:10;;;;;;;1.30;1.00;;;;;;;13.16;83.34;99684.00;5009502;28;20026;-63
2023/08/30 03:13:36;;;;;;;1.17;0.88;;;;;;;13.19;82.77;99678.69;5009685;28;20030;-63
2023/08/30 03:16:02;;;;;;;1.50;0.98;;;;;;;13.16;83.06;99676.19;5009175;28;20049;-63
2023/08/30 03:18:27;;;;;;;4.13;0.80;;;;;;;13.17;82.63;99683.09;5008056;28;20027;-63
2023/08/30 03:21:02;;;;;;;1.55;0.93;;;;;;;13.18;83.18;99682.19;5008929;28;20028;-63
2023/08/30 03:23:27;;;;;;;1.50;1.15;;;;;;;13.22;82.83;99690.75;5009213;28;20053;-63
2023/08/30 03:25:52;;;;;;;0.80;0.68;;;;;;;13.19;83.06;99683.03;5009010;28;20026;-62
2023/08/30 03:28:17;;;;;;;3.35;1.10;;;;;;;13.19;82.76;99683.03;5008941;28;20065;-63
2023/08/30 03:30:43;;;;;;;2.30;1.27;;;;;;;13.21;82.94;99686.47;5009073;28;20387;-62
2023/08/30 03:33:08;;;;;;;1.17;0.90;;;;;;;13.23;82.55;99682.03;5009137;28;20030;-62
2023/08/30 03:35:35;;;;;;;1.20;0.93;;;;;;;13.22;82.80;99680.34;5008550;28;20030;-63
2023/08/30 03:38:00;;;;;;;0.82;0.82;;;;;;;13.19;82.60;99672.63;5008765;28;20030;-62
2023/08/30 03:40:27;;;;;;;0.85;0.60;;;;;;;13.17;82.86;99672.66;5008322;28;20018;-62
2023/08/30 03:42:52;;;;;;;2.75;1.30;;;;;;;13.16;82.82;99664.91;5007269;28;20545;-63
2023/08/30 03:45:18;;;;;;;2.67;0.82;;;;;;;13.16;82.83;99670.09;5008429;28;20029;-63
2023/08/30 03:47:43;;;;;;;0.70;0.70;;;;;;;13.12;82.91;99670.22;5008894;28;20489;-63
2023/08/30 03:50:09;;;;;;;1.00;0.93;;;;;;;12.89;83.00;99637.88;5007948;28;20049;-62
2023/08/30 03:52:35;;;;;;;0.70;0.70;;;;;;;13.10;83.35;99682.41;5008639;28;20022;-62
2023/08/30 03:55:00;;;;;;;1.23;0.65;;;;;;;13.11;83.07;99678.94;5006981;28;20026;-63
2023/08/30 03:57:26;;;;;;;0.75;0.70;;;;;;;13.17;82.82;99684.84;5008627;28;20022;-62
2023/08/30 03:59:51;;;;;;;1.52;1.13;;;;;;;13.12;83.00;99680.63;5008457;28;20045;-62
2023/08/30 04:02:16;;;;;;;0.73;0.73;;;;;;;13.03;83.41;99665.28;5008130;28;20023;-62
2023/08/30 04:04:42;;;;;;;1.33;1.23;;;;;;;12.98;83.48;99668.03;5008306;28;20022;-63
2023/08/30 04:07:07;;;;;;;0.75;0.73;;;;;;;12.99;83.55;99669.72;5008118;28;20439;-62
2023/08/30 04:09:32;;;;;;;1.27;1.17;;;;;;;12.97;83.52;99666.31;5008001;28;20541;-64
2023/08/30 04:11:59;;;;;;;1.20;0.82;;;;;;;12.95;83.41;99662.06;5007873;28;20093;-62
2023/08/30 04:14:24;;;;;;;1.05;0.80;;;;;;;12.95;83.62;99669.88;5006963;28;20439;-61
2023/08/30 04:16:50;;;;;;;6.25;0.90;;;;;;;12.98;83.51;99662.81;5007569;28;20118;-64
2023/08/30 04:19:15;;;;;;;5.20;0.80;;;;;;;12.96;83.52;99664.59;5007999;28;20082;-63
2023/08/30 04:21:40;;;;;;;1.10;1.00;;;;;;;12.93;83.70;99666.44;5007946;28;20082;-61
2023/08/30 04:24:06;;;;;;;1.17;0.93;;;;;;;12.97;83.61;99668.06;5008208;28;20018;-63
2023/08/30 04:26:31;;;;;;;6.22;1.27;;;;;;;12.98;83.82;99667.16;5007590;28;20028;-62
2023/08/30 04:28:57;;;;;;;0.52;0.52;;;;;;;12.96;83.93;99658.53;5007887;28;20026;-62
2023/08/30 04:31:22;;;;;;;1.35;0.82;;;;;;;13.04;83.62;99664.38;5007857;28;20105;-62
2023/08/30 04:33:47;;;;;;;1.00;0.93;;;;;;;13.03;83.48;99654.88;5007692;28;20033;-63
2023/08/30 04:36:13;;;;;;;0.85;0.73;;;;;;;13.04;83.33;99646.13;5007530;28;20082;-62
2023/08/30 04:38:38;;;;;;;1.00;0.90;;;;;;;12.99;83.49;99648.88;5007928;28;20030;-63
2023/08/30 04:41:03;;;;;;;3.80;0.82;;;;;;;12.98;83.46;99647.19;5007254;28;20030;-63
2023/08/30 04:43:29;;;;;;;1.27;0.95;;;;;;;12.91;83.59;99630.03;5007934;28;20057;-62
2023/08/30 04:45:54;;;;;;;1.20;1.10;;;;;;;13.02;83.26;99637.50;5007871;28;20030;-63
2023/08/30 04:48:19;;;;;;;1.13;0.95;;;;;;;12.98;83.63;99636.75;5007546;28;20022;-62
2023/08/30 04:50:45;;;;;;;0.98;0.90;;;;;;;12.97;83.65;99635.03;5007346;28;20026;-63
2023/08/30 04:53:10;;;;;;;1.00;0.77;;;;;;;12.97;83.73;99635.03;5007710;28;20026;-63
2023/08/30 04:55:35;;;;;;;0.85;0.85;;;;;;;13.05;83.54;99637.41;5007007;28;20041;-63
2023/08/30 04:58:01;;;;;;;2.88;0.82;;;;;;;13.03;83.25;99634.00;5007301;28;20022;-62
2023/08/30 05:00:26;;;;;;;2.40;1.27;;;;;;;13.02;83.48;99635.75;5007023;28;20038;-62
2023/08/30 05:02:52;;;;;;;0.98;0.88;;;;;;;13.02;83.29;99629.69;5006019;28;20080;-63
2023/08/30 05:05:17;;;;;;;5.35;1.52;;;;;;;13.06;83.32;99636.53;5007352;28;20026;-63
2023/08/30 05:07:42;;;;;;;1.95;0.80;;;;;;;13.02;83.59;99630.53;5006964;28;20061;-62
2023/08/30 05:10:08;;;;;;;1.20;1.10;;;;;;;13.09;83.46;99641.63;5006916;28;20041;-62
2023/08/30 05:12:35;;;;;;;0.55;0.55;;;;;;;13.13;82.88;99643.22;5005803;28;20086;-62
2023/08/30 05:15:00;;;;;;;0.77;0.77;;;;;;;13.14;82.69;99639.75;5007055;28;20030;-62
2023/08/30 05:17:28;;;;;;;2.72;1.60;;;;;;;13.14;82.65;99637.16;5006983;28;20030;-62
2023/08/30 05:19:53;;;;;;;1.02;0.90;;;;;;;13.22;82.52;99643.84;5006769;28;20018;-62
2023/08/30 05:22:18;;;;;;;0.80;0.70;;;;;;;13.20;82.50;99649.13;5006538;28;20018;-63
2023/08/30 05:24:44;;;;;;;1.10;1.00;;;;;;;13.22;82.63;99646.47;5006406;28;20030;-62
2023/08/30 05:27:11;;;;;;;3.95;0.77;;;;;;;13.21;82.70;99645.59;5006541;28;20053;-62
2023/08/30 05:29:37;;;;;;;1.00;0.90;;;;;;;13.24;82.46;99637.69;5006435;28;20023;-63
2023/08/30 05:32:02;;;;;;;0.85;0.70;;;;;;;13.30;82.64;99647.06;5021585;28;20056;-63
2023/08/30 05:34:28;;;;;;;0.93;0.90;;;;;;;13.36;82.28;99639.06;5006557;28;20486;-63
2023/08/30 05:36:53;;;;;;;1.88;1.50;;;;;;;13.38;82.12;99639.00;5006531;28;20022;-62
2023/08/30 05:39:19;;;;;;;1.23;1.00;;;;;;;13.45;82.26;99637.06;5006483;28;20257;-63
2023/08/30 05:41:44;;;;;;;0.85;0.75;;;;;;;13.48;82.10;99626.53;5006317;28;20041;-62
2023/08/30 05:44:10;;;;;;;0.75;0.73;;;;;;;13.78;82.89;99636.00;5005043;28;20023;-63
2023/08/30 05:46:35;;;;;;;8.40;0.82;;;;;;;14.03;82.64;99642.97;5006318;28;20026;-63
2023/08/30 05:49:02;;;;;;;0.65;0.63;;;;;;;14.20;82.55;99643.22;5006439;28;20057;-64
2023/08/30 05:51:28;;;;;;;5.15;0.98;;;;;;;14.41;82.71;99639.91;5006400;28;20027;-63
2023/08/30 05:53:53;;;;;;;0.88;0.80;;;;;;;14.54;82.00;99635.91;5006611;28;20022;-63
2023/08/30 05:56:19;;;;;;;2.42;1.30;;;;;;;14.54;81.15;99629.81;5006015;28;20467;-62
2023/08/30 05:58:44;;;;;;;1.33;0.88;;;;;;;14.45;80.23;99641.47;5006328;28;20030;-63
2023/08/30 06:01:09;;;;;;;1.35;1.23;;;;;;;14.34;79.70;99644.50;5006161;28;20030;-63
2023/08/30 06:03:35;;;;;;;1.95;1.33;;;;;;;14.27;79.48;99637.78;5004654;28;20092;-62
2023/08/30 06:06:01;;;;;;;1.42;0.98;;;;;;;14.30;79.84;99633.28;5005989;28;20023;-63
2023/08/30 06:08:27;;;;;;;1.98;1.33;;;;;;;14.66;80.86;99639.84;5005991;28;20038;-63
2023/08/30 06:10:52;;;;;;;2.75;0.93;;;;;;;15.24;81.88;99635.00;5005558;28;20018;-63
2023/08/30 06:13:17;;;;;;;1.20;1.10;;;;;;;15.99;79.97;99634.56;5005832;28;20760;-62
2023/08/30 06:15:44;;;;;;;0.93;0.85;;;;;;;16.43;80.73;99637.91;5005866;28;20065;-62
2023/08/30 06:18:10;;;;;;;0.90;0.85;;;;;;;16.90;80.35;99628.75;5005967;28;20486;-63
2023/08/30 06:20:35;;;;;;;1.83;1.13;;;;;;;17.07;77.54;99635.84;5004877;28;20030;-63
2023/08/30 06:23:03;;;;;;;0.60;0.55;;;;;;;17.09;74.94;99634.00;5005877;28;20022;-62
2023/08/30 06:25:28;;;;;;;0.77;0.70;;;;;;;17.22;73.37;99642.13;5005979;28;20022;-61
2023/08/30 06:27:58;;;;;;;0.90;0.90;;;;;;;17.41;72.08;99635.13;5005857;28;20452;-62
2023/08/30 06:30:30;;;;;;;1.85;1.00;;;;;;;17.64;71.76;99636.59;5005938;28;20019;-62
2023/08/30 06:32:56;;;;;;;1.25;0.88;;;;;;;17.94;71.81;99638.59;5005578;28;20511;-63
2023/08/30 06:35:22;;;;;;;0.80;0.77;;;;;;;18.40;70.05;99641.53;5006075;28;20027;-61
2023/08/30 06:37:47;;;;;;;1.67;0.65;;;;;;;18.80;69.75;99628.84;5005577;28;20026;-61
2023/08/30 06:40:13;;;;;;;0.60;0.60;;;;;;;19.08;66.63;99627.31;5005425;28;20019;-63
2023/08/30 06:42:38;;;;;;;3.00;1.05;;;;;;;19.37;67.72;99634.50;5004426;28;20479;-63
2023/08/30 06:45:04;;;;;;;1.42;0.98;;;;;;;19.90;68.87;99628.78;5005667;28;20030;-62
2023/08/30 06:47:30;;;;;;;0.82;0.75;;;;;;;20.14;64.79;99644.06;5005620;28;20491;-62
2023/08/30 06:49:55;;;;;;;1.40;0.93;;;;;;;20.38;64.77;99646.16;5005769;28;20026;-62
2023/08/30 06:52:20;;;;;;;1.30;0.65;;;;;;;20.37;60.17;99640.94;5005783;28;20030;-63
2023/08/30 06:54:46;;;;;;;2.45;0.60;;;;;;;19.98;59.00;99644.13;5005218;28;20093;-61
2023/08/30 06:57:11;;;;;;;0.73;0.68;;;;;;;19.71;58.77;99644.84;5005505;28;20026;-61
2023/08/30 06:59:37;;;;;;;1.67;0.73;;;;;;;19.73;58.75;99655.28;5005467;28;20022;-62
2023/08/30 07:02:03;;;;;;;1.02;0.93;;;;;;;19.55;58.03;99650.97;5005549;28;20058;-61
2023/08/30 07:04:28;;;;;;;0.73;0.70;;;;;;;19.25;58.96;99649.19;5004029;28;20129;-62
2023/08/30 07:06:54;;;;;;;0.85;0.70;;;;;;;19.18;60.26;99659.22;5005682;28;20030;-61
2023/08/30 07:09:19;;;;;;;0.60;0.60;;;;;;;19.41;59.40;99657.06;5005725;28;20069;-62
2023/08/30 07:11:45;;;;;;;1.65;1.25;;;;;;;19.49;60.48;99668.94;5005483;28;20018;-61
2023/08/30 07:14:12;;;;;;;0.70;0.52;;;;;;;19.78;60.69;99664.59;5005690;28;20084;-62
2023/08/30 07:16:37;;;;;;;4.18;1.50;;;;;;;20.03;59.72;99664.94;5005279;28;20130;-62
2023/08/30 07:19:02;;;;;;;1.42;0.73;;;;;;;20.30;60.13;99658.94;5005337;28;20026;-63
2023/08/30 07:21:28;;;;;;;1.08;0.82;;;;;;;20.65;59.50;99652.41;5005378;28;20023;-63
2023/08/30 07:23:53;;;;;;;1.17;0.70;;;;;;;20.95;58.64;99656.72;5005742;28;20026;-62
2023/08/30 07:26:18;;;;;;;0.77;0.77;;;;;;;21.00;56.65;99648.50;5007483;28;20054;-61
2023/08/30 07:28:45;;;;;;;1.15;0.95;;;;;;;20.69;55.60;99648.63;5008943;28;20022;-61
2023/08/30 07:31:13;;;;;;;1.25;0.98;;;;;;;20.43;57.71;99654.59;5008931;28;20037;-62
2023/08/30 07:33:39;;;;;;;1.98;1.00;;;;;;;20.66;58.89;99651.47;5008828;28;20026;-61
2023/08/30 07:36:05;;;;;;;0.90;0.68;;;;;;;20.89;57.40;99659.72;5007646;28;20061;-62
2023/08/30 07:38:30;;;;;;;0.98;0.90;;;;;;;20.75;55.92;99657.97;5009140;28;20026;-62
2023/08/30 07:40:56;;;;;;;2.75;1.20;;;;;;;20.44;56.91;99673.91;5008344;28;20101;-63
2023/08/30 07:43:21;;;;;;;0.82;0.50;;;;;;;20.50;57.25;99670.88;5008819;28;20026;-61
2023/08/30 07:45:47;;;;;;;1.48;1.00;;;;;;;20.63;57.35;99662.19;5008631;28;20388;-61
2023/08/30 07:48:12;;;;;;;0.98;0.80;;;;;;;20.85;58.54;99664.31;5008783;28;20022;-62
2023/08/30 07:50:38;;;;;;;0.50;0.50;;;;;;;21.29;57.99;99665.06;5008480;28;20022;-61
2023/08/30 07:53:03;;;;;;;2.15;1.08;;;;;;;21.73;56.79;99662.22;5008666;28;20065;-62
2023/08/30 07:55:29;;;;;;;0.93;0.68;;;;;;;21.94;55.18;99653.81;5008619;28;20031;-61
2023/08/30 07:57:54;;;;;;;1.88;1.08;;;;;;;21.81;54.18;99658.22;5008579;28;20026;-62
2023/08/30 08:00:20;;;;;;;1.88;0.90;;;;;;;21.60;56.09;99666.63;5008628;28;20026;-61
2023/08/30 08:02:45;;;;;;;2.00;1.00;;;;;;;21.79;55.92;99664.47;5008205;28;20038;-61
2023/08/30 08:05:11;;;;;;;0.82;0.60;;;;;;;22.20;55.92;99660.88;5008462;28;20461;-60
2023/08/30 08:07:39;;;;;;;0.73;0.70;;;;;;;22.49;54.02;99669.41;5008021;28;20053;-60
2023/08/30 08:10:05;;;;;;;1.27;0.80;;;;;;;22.46;52.95;99666.97;5007908;28;20022;-61
2023/08/30 08:12:32;;;;;;;2.17;1.02;;;;;;;22.33;52.83;99647.66;5008125;28;20077;-61
2023/08/30 08:14:57;;;;;;;0.50;0.50;;;;;;;22.33;54.29;99655.59;5007957;28;20030;-60
2023/08/30 08:17:23;;;;;;;2.05;0.90;;;;;;;22.91;54.74;99657.69;5008001;28;20049;-61
2023/08/30 08:19:48;;;;;;;0.30;0.30;;;;;;;23.39;53.31;99661.31;5022979;28;20061;-60
2023/08/30 08:22:13;;;;;;;1.25;0.80;;;;;;;23.44;52.27;99651.22;5007992;28;20053;-61
2023/08/30 08:24:39;;;;;;;1.40;0.68;;;;;;;23.48;50.52;99657.97;5008310;28;20082;-62
2023/08/30 08:27:05;;;;;;;0.98;0.82;;;;;;;23.20;50.92;99657.38;5006575;28;20030;-62
2023/08/30 08:29:31;;;;;;;1.88;0.77;;;;;;;23.42;51.40;99661.09;5008074;28;20037;-61
2023/08/30 08:31:57;;;;;;;3.08;1.42;;;;;;;23.50;50.37;99653.41;5008055;28;20105;-62
2023/08/30 08:34:22;;;;;;;0.80;0.60;;;;;;;23.66;51.10;99654.91;5007836;28;20098;-61
2023/08/30 08:36:47;;;;;;;1.08;0.68;;;;;;;24.21;50.50;99659.59;5007681;28;20026;-61
2023/08/30 08:39:14;;;;;;;0.90;0.70;;;;;;;24.62;50.27;99654.63;5007704;28;20022;-61
2023/08/30 08:41:44;;;;;;;1.98;0.98;;;;;;;25.19;50.44;99661.63;5007529;28;20117;-61
2023/08/30 08:44:11;;;;;;;0.63;0.52;;;;;;;25.78;49.24;99649.78;5007821;28;20132;-62
2023/08/30 08:46:39;;;;;;;2.15;0.95;;;;;;;25.92;45.89;99646.78;5007530;28;20049;-61
2023/08/30 08:49:15;;;;;;;2.13;0.90;;;;;;;25.49;47.11;99640.63;5008070;28;20022;-61
2023/08/30 08:51:42;;;;;;;0.57;0.57;;;;;;;25.89;47.87;99641.75;5007820;28;20037;-62
2023/08/30 08:54:11;;;;;;;1.70;0.90;;;;;;;26.56;47.22;99633.34;5007637;28;20026;-62
2023/08/30 08:56:38;;;;;;;2.08;0.75;;;;;;;27.35;46.92;99640.56;5007307;28;20030;-62
2023/08/30 08:59:05;;;;;;;2.58;1.08;;;;;;;27.77;43.23;99646.59;5007365;28;20030;-62
2023/08/30 09:01:33;;;;;;;0.85;0.60;;;;;;;26.98;41.95;99634.94;5007049;28;20426;-62
2023/08/30 09:03:59;;;;;;;1.15;0.70;;;;;;;25.84;43.16;99642.13;5006072;28;20072;-61
2023/08/30 09:06:25;;;;;;;1.42;0.85;;;;;;;24.98;45.53;99641.22;5007038;28;20058;-62
2023/08/30 09:08:50;;;;;;;0.82;0.60;;;;;;;24.45;47.17;99647.16;5007042;28;20023;-61
2023/08/30 09:11:15;;;;;;;1.50;0.80;;;;;;;24.02;47.33;99655.72;5006947;28;20533;-61
2023/08/30 09:13:43;;;;;;;0.63;0.50;;;;;;;23.57;48.21;99653.81;5007015;28;20467;-62
2023/08/30 09:16:13;;;;;;;0.43;0.43;;;;;;;23.57;49.14;99652.94;5007087;28;20054;-62
2023/08/30 09:18:39;;;;;;;0.68;0.47;;;;;;;23.74;49.40;99663.13;5007198;28;20475;-62
2023/08/30 09:21:14;;;;;;;0.90;0.65;;;;;;;23.86;47.63;99660.50;5006755;28;20113;-62
2023/08/30 09:23:39;;;;;;;0.68;0.50;;;;;;;23.91;48.47;99650.41;5006934;28;20054;-61
2023/08/30 09:26:05;;;;;;;1.20;0.82;;;;;;;23.97;48.90;99649.91;5006645;28;20030;-61
2023/08/30 09:28:31;;;;;;;1.42;0.68;;;;;;;23.82;49.41;99653.75;5006663;28;20105;-61
2023/08/30 09:31:00;;;;;;;1.92;0.75;;;;;;;23.42;48.19;99650.50;5006737;28;20463;-61
2023/08/30 09:33:33;;;;;;;0.40;0.40;;;;;;;22.93;48.68;99658.44;5006813;28;20078;-62
2023/08/30 09:35:59;;;;;;;1.10;0.73;;;;;;;23.35;49.39;99660.69;5006353;28;20030;-61
2023/08/30 09:38:25;;;;;;;0.55;0.45;;;;;;;24.74;48.13;99651.97;5006261;28;20526;-61
2023/08/30 09:40:50;;;;;;;1.25;0.60;;;;;;;25.88;47.33;99648.00;5006558;28;20041;-61
2023/08/30 09:43:21;;;;;;;0.52;0.52;;;;;;;26.32;45.94;99652.31;5006056;28;20038;-61
2023/08/30 09:45:48;;;;;;;4.57;1.00;;;;;;;25.67;45.79;99658.69;5006446;28;20391;-62
2023/08/30 09:48:14;;;;;;;0.60;0.60;;;;;;;24.86;47.04;99655.41;5005882;28;20040;-62
2023/08/30 09:50:45;;;;;;;0.68;0.57;;;;;;;24.74;47.73;99658.13;5006056;28;20022;-62
2023/08/30 09:53:14;;;;;;;0.80;0.50;;;;;;;24.62;47.17;99657.28;5006622;28;20026;-61
2023/08/30 09:55:41;;;;;;;2.22;0.98;;;;;;;24.29;47.64;99664.31;5006409;28;20036;-61
2023/08/30 09:58:07;;;;;;;1.05;0.75;;;;;;;24.14;48.42;99661.00;5006288;28;20018;-62
2023/08/30 10:00:33;;;;;;;0.45;0.40;;;;;;;24.09;48.47;99661.34;5006065;28;20356;-62
2023/08/30 10:02:59;;;;;;;1.02;0.60;;;;;;;24.23;48.20;99659.47;5006092;28;20026;-62
2023/08/30 10:05:26;;;;;;;1.27;0.82;;;;;;;23.98;47.55;99656.91;5005822;28;20041;-61
2023/08/30 10:07:52;;;;;;;1.30;0.70;;;;;;;23.60;48.42;99658.03;5005632;28;20378;-61
2023/08/30 10:10:19;;;;;;;0.77;0.60;;;;;;;23.23;48.99;99646.53;5005775;28;20490;-61
2023/08/30 10:12:46;;;;;;;0.52;0.52;;;;;;;22.86;49.08;99647.44;5006186;28;20018;-62
2023/08/30 10:15:11;;;;;;;2.53;0.70;;;;;;;22.74;49.84;99650.97;5005937;28;20398;-63
2023/08/30 10:17:41;;;;;;;1.05;0.60;;;;;;;22.90;50.02;99653.38;5005946;28;20022;-63
2023/08/30 10:20:07;;;;;;;2.80;0.95;;;;;;;23.00;49.71;99656.19;5005963;28;20025;-62
2023/08/30 10:22:36;;;;;;;1.65;0.77;;;;;;;22.86;49.89;99649.25;5006175;28;20030;-62
2023/08/30 10:25:24;;;;;;;1.00;0.82;;;;;;;22.75;49.95;99652.66;5005692;28;20467;-62
2023/08/30 10:27:50;;;;;;;1.20;0.98;;;;;;;22.53;49.79;99654.19;5005616;28;20049;-61
2023/08/30 10:30:18;;;;;;;9.85;1.08;;;;;;;22.45;50.50;99653.88;5005594;28;20029;-61
2023/08/30 10:32:45;;;;;;;0.93;0.73;;;;;;;22.59;50.42;99656.41;5005705;28;20032;-61
2023/08/30 10:35:13;;;;;;;3.60;0.50;;;;;;;22.53;50.56;99644.44;5005857;28;20096;-61
2023/08/30 10:37:38;;;;;;;1.23;0.80;;;;;;;22.71;50.72;99657.34;5005849;28;20061;-61
2023/08/30 10:40:05;;;;;;;1.77;0.90;;;;;;;22.70;50.44;99658.28;5005532;28;20022;-62
2023/08/30 10:42:32;;;;;;;1.20;0.88;;;;;;;22.73;50.45;99655.41;5005593;28;20049;-63
2023/08/30 10:44:58;;;;;;;1.92;0.73;;;;;;;23.28;50.87;99657.66;5005477;28;20026;-61
2023/08/30 10:47:28;;;;;;;1.13;0.77;;;;;;;24.54;49.21;99661.53;5005493;28;20043;-61
2023/08/30 10:49:55;;;;;;;0.80;0.63;;;;;;;25.94;46.55;99659.97;5005672;28;20537;-61
2023/08/30 10:52:21;;;;;;;1.20;0.73;;;;;;;26.70;45.84;99650.75;5005478;28;20030;-62
2023/08/30 10:54:47;;;;;;;0.85;0.70;;;;;;;27.64;44.52;99658.38;5004240;28;20086;-61
2023/08/30 10:57:14;;;;;;;1.13;0.63;;;;;;;27.66;44.65;99659.06;5005160;28;20069;-61
2023/08/30 10:59:40;;;;;;;0.90;0.57;;;;;;;27.87;45.19;99658.06;5005706;28;20076;-62
2023/08/30 11:02:06;;;;;;;0.70;0.60;;;;;;;28.77;43.99;99658.56;5009184;28;20022;-62
2023/08/30 11:04:31;;;;;;;0.73;0.60;;;;;;;29.13;41.83;99647.91;5009324;28;20022;-62
2023/08/30 11:06:57;;;;;;;1.67;0.55;;;;;;;29.17;40.52;99649.28;5009510;28;20022;-62
2023/08/30 11:09:23;;;;;;;0.50;0.45;;;;;;;29.73;39.02;99653.56;5009363;28;20038;-62
2023/08/30 11:11:50;;;;;;;1.40;0.95;;;;;;;29.65;38.29;99638.31;5009356;28;20025;-62
2023/08/30 11:14:17;;;;;;;2.33;1.10;;;;;;;29.64;38.30;99650.00;5009295;28;20022;-62
2023/08/30 11:16:43;;;;;;;1.30;0.85;;;;;;;29.09;39.76;99645.72;5009094;28;20419;-62
2023/08/30 11:19:09;;;;;;;1.40;0.60;;;;;;;28.49;40.83;99650.53;5009319;28;20491;-61
2023/08/30 11:21:42;;;;;;;0.70;0.60;;;;;;;28.03;40.67;99651.28;5007448;28;20057;-61
2023/08/30 11:24:08;;;;;;;1.02;0.70;;;;;;;27.27;41.55;99648.47;5009357;28;20049;-62
2023/08/30 11:26:34;;;;;;;0.65;0.65;;;;;;;26.82;40.67;99650.63;5009055;28;20050;-62
2023/08/30 11:29:07;;;;;;;1.23;0.73;;;;;;;26.03;42.04;99653.00;5009165;28;20022;-62
2023/08/30 11:31:32;;;;;;;0.90;0.60;;;;;;;25.43;42.97;99657.06;5008891;28;20388;-61